Time;durP1;ratioP1;P1;durP2;ratioP2;P2;SDS_P1;SDS_P2;PMS_P1;PMS_P2;Temp;Humidity;BMP_temperature;BMP_pressure;BME280_temperature;BME280_humidity;BME280_pressure;Samples;Min_cycle;Max_cycle;Signal;HPM_P1;HPM_P2
2023/01/19 00:00:30;;;;;;;;;;;;;;;16.42;56.21;100202.13;4957492;28;1097;-42
2023/01/19 00:02:55;;;;;;;;;;;;;;;16.16;56.22;100195.16;4958095;28;1090;-42
2023/01/19 00:05:21;;;;;;;;;;;;;;;16.06;56.36;100188.66;4957230;28;1910;-40
2023/01/19 00:07:46;;;;;;;;;;;;;;;17.49;53.86;100198.63;4957665;28;1028;-44
2023/01/19 00:10:12;;;;;;;;;;;;;;;16.57;55.98;100195.69;4959685;28;1098;-37
2023/01/19 00:12:37;;;;;;;;;;;;;;;16.26;56.45;100195.13;4957769;28;1097;-40
2023/01/19 00:15:03;;;;;;;;;;;;;;;16.05;56.42;100198.00;4958219;28;1093;-41
2023/01/19 00:17:28;;;;;;;;;;;;;;;17.08;55.23;100191.66;4957466;28;1209;-37
2023/01/19 00:19:53;;;;;;;;;;;;;;;16.75;55.48;100198.84;4958348;28;1029;-40
2023/01/19 00:22:19;;;;;;;;;;;;;;;16.31;56.41;100202.47;4957457;28;1105;-39
2023/01/19 00:24:44;;;;;;;;;;;;;;;16.11;56.32;100200.72;4957693;28;1985;-45
2023/01/19 00:27:10;;;;;;;;;;;;;;;15.94;56.40;100214.81;4967044;28;1082;-39
2023/01/19 00:29:35;;;;;;;;;;;;;;;17.25;54.47;100221.44;4960315;28;1212;-43
2023/01/19 00:32:01;;;;;;;;;;;;;;;16.68;55.90;100225.81;4947911;28;1054;-39
2023/01/19 00:34:35;;;;;;;;;;;;;;;16.26;56.56;100228.03;4957589;28;1121;-42
2023/01/19 00:37:01;;;;;;;;;;;;;;;16.01;56.53;100218.84;4958075;28;1067;-36
2023/01/19 00:39:27;;;;;;;;;;;;;;;17.02;55.29;100225.78;4957502;28;1097;-38
2023/01/19 00:44:36;;;;;;;;;;;;;;;16.39;56.17;100227.38;4948441;28;1998;-41
2023/01/19 00:47:03;;;;;;;;;;;;;;;16.11;56.41;100230.88;4960977;28;1077;-36
2023/01/19 00:49:29;;;;;;;;;;;;;;;16.01;56.21;100238.06;4948178;28;1050;-38
2023/01/19 00:51:54;;;;;;;;;;;;;;;16.77;55.69;100237.78;4959323;28;1320;-41
2023/01/19 00:54:19;;;;;;;;;;;;;;;17.31;54.40;100230.44;4960641;28;1245;-40
2023/01/19 00:56:45;;;;;;;;;;;;;;;16.48;56.06;100221.28;4959999;29;1296;-43
2023/01/19 00:59:10;;;;;;;;;;;;;;;16.22;56.48;100221.47;4960365;29;1241;-38
2023/01/19 01:01:36;;;;;;;;;;;;;;;16.02;56.37;100212.28;4960538;28;1249;-38
2023/01/19 01:04:01;;;;;;;;;;;;;;;17.38;54.10;100214.41;4959745;28;1164;-37
2023/01/19 01:06:27;;;;;;;;;;;;;;;16.62;55.88;100214.06;4959516;28;1911;-41
2023/01/19 01:08:52;;;;;;;;;;;;;;;16.26;56.33;100200.59;4958892;29;1261;-37
2023/01/19 01:11:18;;;;;;;;;;;;;;;16.07;56.28;100195.81;4965149;28;1157;-39
2023/01/19 01:13:43;;;;;;;;;;;;;;;15.90;56.36;100187.13;4959850;28;1042;-38
2023/01/19 01:16:09;;;;;;;;;;;;;;;17.16;54.90;100187.44;4958980;28;1234;-38
2023/01/19 01:18:34;;;;;;;;;;;;;;;16.77;55.71;100180.13;4960835;28;1236;-37
2023/01/19 01:21:03;;;;;;;;;;;;;;;16.50;56.09;100180.66;4959181;28;1314;-39
2023/01/19 01:23:28;;;;;;;;;;;;;;;16.10;56.71;100175.19;4958919;28;1034;-43
2023/01/19 01:25:54;;;;;;;;;;;;;;;16.31;56.90;100186.81;4959566;28;1910;-41
2023/01/19 01:28:19;;;;;;;;;;;;;;;17.49;54.21;100193.13;4957497;28;1268;-44
2023/01/19 01:30:45;;;;;;;;;;;;;;;16.56;56.33;100199.56;4962951;28;1288;-38
2023/01/19 01:33:10;;;;;;;;;;;;;;;16.19;56.65;100194.63;4959889;28;1069;-39
2023/01/19 01:35:36;;;;;;;;;;;;;;;16.01;56.60;100196.91;4959232;28;1073;-46
2023/01/19 01:38:01;;;;;;;;;;;;;;;17.24;54.88;100205.25;4966727;28;1073;-44
2023/01/19 01:40:27;;;;;;;;;;;;;;;16.82;55.56;100196.56;4966205;28;1216;-40
2023/01/19 01:42:53;;;;;;;;;;;;;;;16.33;56.45;100200.28;4965122;28;1054;-44
2023/01/19 01:45:34;;;;;;;;;;;;;;;16.05;56.75;100199.94;4965944;28;1975;-45
2023/01/19 01:48:01;;;;;;;;;;;;;;;16.77;56.07;100196.59;4959951;28;1149;-41
2023/01/19 01:50:27;;;;;;;;;;;;;;;17.25;54.54;100193.13;4942125;28;1019;-40
2023/01/19 01:53:09;;;;;;;;;;;;;;;16.43;56.46;100201.00;4959735;28;1220;-41
2023/01/19 01:55:35;;;;;;;;;;;;;;;16.14;56.71;100200.94;4942533;29;1134;-43
2023/01/19 01:58:01;;;;;;;;;;;;;;;16.64;56.39;100209.06;4941156;28;1700;-39
2023/01/19 02:00:27;;;;;;;;;;;;;;;16.92;55.38;100196.47;4958708;28;1555;-41
2023/01/19 02:02:55;;;;;;;;;;;;;;;16.31;56.47;100184.09;4959335;28;1116;-45
2023/01/19 02:05:28;;;;;;;;;;;;;;;16.23;56.17;100181.97;4973566;28;1906;-47
2023/01/19 02:13:45;;;;;;;;;;;;;;;16.47;56.10;100201.25;4944281;28;1149;-39
2023/01/19 02:16:12;;;;;;;;;;;;;;;16.19;56.72;100197.38;4960036;28;1197;-46
2023/01/19 02:18:37;;;;;;;;;;;;;;;16.01;56.38;100207.88;4943146;28;1113;-44
2023/01/19 02:21:18;;;;;;;;;;;;;;;16.30;56.79;100209.91;4966148;28;1295;-40
2023/01/19 02:23:51;;;;;;;;;;;;;;;17.34;54.55;100209.81;4958581;28;946;-41
2023/01/19 02:26:23;;;;;;;;;;;;;;;16.49;56.32;100203.72;4958608;28;1906;-41
2023/01/19 02:28:50;;;;;;;;;;;;;;;16.13;56.61;100193.84;4959142;28;1233;-43
2023/01/19 02:31:16;;;;;;;;;;;;;;;16.05;56.75;100200.72;4958137;28;1114;-42
2023/01/19 02:33:41;;;;;;;;;;;;;;;17.47;54.64;100184.34;4964935;28;1152;-44
2023/01/19 02:36:07;;;;;;;;;;;;;;;17.05;55.34;100205.97;4980118;28;1181;-40
2023/01/19 02:38:32;;;;;;;;;;;;;;;16.56;56.41;100217.94;4941869;29;1233;-44
2023/01/19 02:40:58;;;;;;;;;;;;;;;16.24;56.63;100224.75;4958658;28;1141;-43
2023/01/19 02:43:24;;;;;;;;;;;;;;;16.36;56.99;100224.41;4958906;28;1117;-41
2023/01/19 02:45:49;;;;;;;;;;;;;;;17.36;54.36;100238.63;4958502;28;1907;-43
2023/01/19 02:48:16;;;;;;;;;;;;;;;16.55;56.15;100243.72;4941169;29;1011;-45
2023/01/19 02:50:48;;;;;;;;;;;;;;;16.25;56.52;100240.09;4958848;28;1120;-43
2023/01/19 02:53:19;;;;;;;;;;;;;;;16.08;56.54;100241.28;4946419;28;1070;-46
2023/01/19 02:55:46;;;;;;;;;;;;;;;17.21;54.98;100238.78;4964944;28;1232;-41
2023/01/19 02:58:16;;;;;;;;;;;;;;;16.86;55.55;100241.56;4941486;29;1240;-45
2023/01/19 03:00:47;;;;;;;;;;;;;;;16.43;56.38;100244.91;4941295;28;1015;-47
2023/01/19 03:03:12;;;;;;;;;;;;;;;17.54;54.24;100249.97;4958267;28;1081;-44
2023/01/19 03:05:57;;;;;;;;;;;;;;;17.19;54.70;100249.25;4957586;28;1906;-45
2023/01/19 03:08:26;;;;;;;;;;;;;;;16.56;56.02;100259.94;4959608;28;872;-46
2023/01/19 03:11:00;;;;;;;;;;;;;;;16.35;56.28;100261.16;4957723;28;1526;-47
2023/01/19 03:13:28;;;;;;;;;;;;;;;16.16;56.08;100261.00;4956480;28;932;-45
2023/01/19 03:15:54;;;;;;;;;;;;;;;17.16;55.29;100249.84;4958099;28;1193;-46
2023/01/19 03:18:20;;;;;;;;;;;;;;;16.98;55.37;100254.94;4958059;28;1248;-41
2023/01/19 03:20:46;;;;;;;;;;;;;;;16.46;56.34;100253.69;4953173;29;1143;-49
2023/01/19 03:23:11;;;;;;;;;;;;;;;16.21;56.59;100263.72;4958298;28;1217;-48
2023/01/19 03:25:38;;;;;;;;;;;;;;;16.05;56.32;100269.28;4940607;29;1906;-45
2023/01/19 03:28:03;;;;;;;;;;;;;;;16.93;55.61;100275.03;4966751;28;1093;-44
2023/01/19 03:30:33;;;;;;;;;;;;;;;17.13;54.84;100278.69;4958450;28;1353;-47
2023/01/19 03:33:00;;;;;;;;;;;;;;;16.48;56.16;100270.69;4948302;29;995;-46
2023/01/19 03:35:25;;;;;;;;;;;;;;;16.24;56.59;100279.59;4940895;28;1121;-46
2023/01/19 03:37:52;;;;;;;;;;;;;;;16.05;56.24;100274.78;4940716;29;1165;-44
2023/01/19 03:40:17;;;;;;;;;;;;;;;15.94;56.31;100280.63;4940642;28;1093;-47
2023/01/19 03:42:42;;;;;;;;;;;;;;;16.43;56.59;100274.28;4958164;28;1004;-46
2023/01/19 03:45:08;;;;;;;;;;;;;;;17.37;54.41;100264.97;4960143;28;1977;-43
2023/01/19 03:47:34;;;;;;;;;;;;;;;16.51;56.30;100272.84;4957485;28;1081;-43
2023/01/19 03:50:00;;;;;;;;;;;;;;;16.20;56.73;100278.53;4957999;28;1109;-47
2023/01/19 03:52:27;;;;;;;;;;;;;;;17.37;55.04;100270.47;4940728;29;1245;-45
2023/01/19 03:54:52;;;;;;;;;;;;;;;16.89;55.79;100284.13;4956940;29;1249;-49
2023/01/19 03:57:18;;;;;;;;;;;;;;;16.43;56.27;100285.25;4956638;28;1007;-47
2023/01/19 03:59:43;;;;;;;;;;;;;;;16.28;56.26;100280.69;4957538;28;1061;-50
2023/01/19 04:02:09;;;;;;;;;;;;;;;16.10;56.39;100267.63;4957054;28;1307;-44
2023/01/19 04:04:34;;;;;;;;;;;;;;;16.00;56.20;100268.50;4957271;29;1986;-50
2023/01/19 04:07:00;;;;;;;;;;;;;;;16.86;55.81;100287.44;4957297;28;1069;-51
2023/01/19 04:09:26;;;;;;;;;;;;;;;17.18;54.77;100291.56;4966301;28;851;-46
2023/01/19 04:11:51;;;;;;;;;;;;;;;16.47;56.48;100288.28;4961391;28;1158;-47
2023/01/19 04:14:17;;;;;;;;;;;;;;;16.25;56.62;100289.50;4957758;28;1112;-47
2023/01/19 04:16:42;;;;;;;;;;;;;;;16.03;56.37;100290.72;4957176;28;1233;-46
2023/01/19 04:19:08;;;;;;;;;;;;;;;15.92;56.38;100280.88;4959265;28;1220;-49
2023/01/19 04:21:34;;;;;;;;;;;;;;;15.95;56.73;100283.06;4960990;28;1118;-44
2023/01/19 04:23:59;;;;;;;;;;;;;;;17.35;54.96;100277.38;4960522;28;1312;-48
2023/01/19 04:26:25;;;;;;;;;;;;;;;16.49;56.40;100283.31;4960453;28;1910;-52
2023/01/19 04:28:50;;;;;;;;;;;;;;;16.15;56.84;100286.81;4961265;28;981;-48
2023/01/19 04:31:18;;;;;;;;;;;;;;;15.99;56.64;100277.81;4961355;28;1045;-50
2023/01/19 04:33:43;;;;;;;;;;;;;;;15.84;56.45;100281.47;4969447;28;878;-48
2023/01/19 04:36:08;;;;;;;;;;;;;;;16.55;56.33;100280.25;4960133;28;1083;-47
2023/01/19 04:38:34;;;;;;;;;;;;;;;17.22;54.90;100287.13;4960714;28;1130;-50
2023/01/19 04:40:59;;;;;;;;;;;;;;;16.40;56.68;100288.59;4961024;28;1054;-47
2023/01/19 04:43:25;;;;;;;;;;;;;;;16.12;56.73;100292.84;4961187;28;1177;-46
2023/01/19 04:45:50;;;;;;;;;;;;;;;15.95;56.63;100298.69;4964956;28;1918;-52
2023/01/19 04:48:17;;;;;;;;;;;;;;;15.79;56.37;100309.72;4960320;29;1245;-49
2023/01/19 04:50:42;;;;;;;;;;;;;;;16.96;55.86;100306.59;4960800;28;1089;-47
2023/01/19 04:53:08;;;;;;;;;;;;;;;17.07;55.27;100302.66;4961442;28;1125;-49
2023/01/19 04:55:33;;;;;;;;;;;;;;;16.35;56.49;100308.63;4960341;28;1521;-49
2023/01/19 04:57:59;;;;;;;;;;;;;;;16.15;57.44;100306.00;4957469;28;1215;-54
2023/01/19 05:00:25;;;;;;;;;;;;;;;17.78;53.97;100325.03;4957170;28;1142;-50
2023/01/19 05:02:51;;;;;;;;;;;;;;;17.39;54.82;100320.50;4960493;28;1022;-48
2023/01/19 05:05:17;;;;;;;;;;;;;;;16.82;56.14;100324.81;4960259;28;1902;-51
2023/01/19 05:07:42;;;;;;;;;;;;;;;16.53;56.29;100320.06;4960320;28;1253;-49
2023/01/19 05:10:08;;;;;;;;;;;;;;;16.35;56.50;100324.28;4966032;28;980;-45
2023/01/19 05:12:34;;;;;;;;;;;;;;;16.15;57.00;100322.47;4977019;28;1132;-51
2023/01/19 05:15:00;;;;;;;;;;;;;;;15.96;56.88;100314.84;4960377;28;1074;-49
2023/01/19 05:17:25;;;;;;;;;;;;;;;15.82;57.20;100305.59;4962845;28;1066;-48
2023/01/19 05:19:51;;;;;;;;;;;;;;;15.95;57.45;100307.75;4970147;28;1098;-52
2023/01/19 05:22:16;;;;;;;;;;;;;;;17.48;55.38;100308.88;4973155;28;1062;-50
2023/01/19 05:24:42;;;;;;;;;;;;;;;16.70;57.13;100301.25;4960746;28;1993;-46
2023/01/19 05:27:07;;;;;;;;;;;;;;;16.20;57.73;100306.81;4973646;28;974;-48
2023/01/19 05:29:33;;;;;;;;;;;;;;;15.93;57.92;100303.63;4963234;28;1145;-51
2023/01/19 05:31:58;;;;;;;;;;;;;;;15.85;57.77;100305.88;4959772;28;1074;-51
2023/01/19 05:34:24;;;;;;;;;;;;;;;15.73;57.56;100311.63;4962511;28;1106;-49
2023/01/19 05:36:50;;;;;;;;;;;;;;;16.89;56.75;100323.41;4979369;28;1096;-52
2023/01/19 05:39:17;;;;;;;;;;;;;;;17.00;56.29;100335.13;4978850;28;1073;-49
2023/01/19 05:41:44;;;;;;;;;;;;;;;16.25;57.59;100325.97;4979361;28;1108;-44
2023/01/19 05:44:10;;;;;;;;;;;;;;;16.00;57.77;100332.38;4965726;28;1252;-50
2023/01/19 05:46:35;;;;;;;;;;;;;;;15.82;57.84;100338.50;4967328;28;2016;-43
2023/01/19 05:49:03;;;;;;;;;;;;;;;15.77;57.53;100335.72;4971924;28;1216;-50
2023/01/19 05:51:33;;;;;;;;;;;;;;;17.32;55.60;100346.66;4953720;28;991;-48
2023/01/19 05:53:59;;;;;;;;;;;;;;;16.63;57.00;100347.44;4964436;28;1168;-45
2023/01/19 05:56:25;;;;;;;;;;;;;;;16.16;57.65;100352.34;4967135;28;1090;-44
2023/01/19 05:58:50;;;;;;;;;;;;;;;15.95;57.59;100356.25;4966217;28;1204;-44
2023/01/19 06:01:16;;;;;;;;;;;;;;;15.97;57.67;100356.81;4964463;28;1118;-44
2023/01/19 06:03:41;;;;;;;;;;;;;;;17.49;55.09;100368.22;4957734;28;1255;-41
2023/01/19 06:06:07;;;;;;;;;;;;;;;16.62;57.13;100366.94;4970606;28;1911;-41
2023/01/19 06:08:32;;;;;;;;;;;;;;;16.19;57.63;100368.25;4965068;28;1121;-42
2023/01/19 06:10:57;;;;;;;;;;;;;;;15.98;57.95;100392.19;4972235;28;1110;-46
2023/01/19 06:13:23;;;;;;;;;;;;;;;15.82;57.67;100385.09;4957953;29;1064;-48
2023/01/19 06:15:48;;;;;;;;;;;;;;;17.15;56.19;100388.28;4958622;28;1298;-45
2023/01/19 06:18:14;;;;;;;;;;;;;;;16.85;56.67;100390.94;4973884;28;1338;-46
2023/01/19 06:20:39;;;;;;;;;;;;;;;16.43;57.73;100390.34;4968472;28;1097;-44
2023/01/19 06:23:05;;;;;;;;;;;;;;;16.96;55.70;100380.75;4974716;28;972;-42
2023/01/19 06:25:30;;;;;;;;;;;;;;;16.39;54.61;100392.03;4968243;28;1902;-45
2023/01/19 06:27:56;;;;;;;;;;;;;;;16.17;53.47;100394.31;4978035;28;1065;-43
2023/01/19 06:30:21;;;;;;;;;;;;;;;16.97;55.60;100400.78;4976953;28;1477;-48
2023/01/19 06:32:46;;;;;;;;;;;;;;;16.29;54.41;100414.03;4976638;28;1084;-43
2023/01/19 06:35:12;;;;;;;;;;;;;;;17.75;55.48;100410.88;4969473;28;1038;-42
2023/01/19 06:37:38;;;;;;;;;;;;;;;17.18;55.12;100404.19;4974292;28;1114;-43
2023/01/19 06:40:03;;;;;;;;;;;;;;;16.57;53.71;100408.97;4970037;28;1066;-45
2023/01/19 06:42:29;;;;;;;;;;;;;;;16.37;52.28;100415.38;4973627;28;1065;-46
2023/01/19 06:44:54;;;;;;;;;;;;;;;16.84;53.57;100418.69;4970541;28;1969;-47
2023/01/19 06:47:20;;;;;;;;;;;;;;;16.59;53.54;100415.81;4957975;29;1351;-45
2023/01/19 06:49:45;;;;;;;;;;;;;;;16.95;53.53;100414.81;4964470;28;1109;-43
2023/01/19 06:52:12;;;;;;;;;;;;;;;17.71;54.46;100412.56;4970750;28;1153;-46
2023/01/19 06:54:38;;;;;;;;;;;;;;;17.00;53.55;100411.19;4959682;28;1256;-45
2023/01/19 06:57:03;;;;;;;;;;;;;;;16.62;52.44;100417.19;4957888;28;1288;-43
2023/01/19 06:59:29;;;;;;;;;;;;;;;16.46;51.17;100415.63;4957790;29;1323;-43
2023/01/19 07:01:55;;;;;;;;;;;;;;;16.57;50.96;100415.25;4974458;28;1015;-45
2023/01/19 07:04:20;;;;;;;;;;;;;;;16.69;52.67;100414.94;4961801;28;1252;-43
2023/01/19 07:06:46;;;;;;;;;;;;;;;16.49;51.19;100418.59;4958057;29;1926;-45
2023/01/19 07:09:12;;;;;;;;;;;;;;;16.27;50.30;100415.41;4960529;28;1189;-42
2023/01/19 07:11:37;;;;;;;;;;;;;;;16.13;49.33;100415.19;4958562;28;1026;-43
2023/01/19 07:14:03;;;;;;;;;;;;;;;16.07;49.07;100409.72;4964166;28;1186;-44
2023/01/19 07:16:28;;;;;;;;;;;;;;;16.71;50.76;100406.41;4969832;28;1145;-43
2023/01/19 07:18:54;;;;;;;;;;;;;;;16.28;50.41;100401.41;4957625;29;1233;-45
2023/01/19 07:21:19;;;;;;;;;;;;;;;17.54;52.06;100410.22;4957263;28;1360;-45
2023/01/19 07:23:48;;;;;;;;;;;;;;;16.76;52.99;100418.19;4959436;28;1194;-46
2023/01/19 07:26:15;;;;;;;;;;;;;;;16.49;51.17;100396.63;4957420;28;1914;-47
2023/01/19 07:28:40;;;;;;;;;;;;;;;16.29;50.43;100397.56;4957558;28;1192;-46
2023/01/19 07:31:06;;;;;;;;;;;;;;;16.15;49.52;100407.50;4959460;28;1372;-46
2023/01/19 07:33:31;;;;;;;;;;;;;;;16.83;50.95;100401.41;4969331;28;1181;-47
2023/01/19 07:35:57;;;;;;;;;;;;;;;16.24;50.94;100401.16;4962748;28;1180;-47
2023/01/19 07:38:22;;;;;;;;;;;;;;;16.18;49.56;100406.94;4977262;28;1045;-45
2023/01/19 07:40:48;;;;;;;;;;;;;;;16.45;50.32;100406.53;4964361;28;1193;-45
2023/01/19 07:43:13;;;;;;;;;;;;;;;16.54;51.03;100404.03;4969096;28;1220;-45
2023/01/19 07:45:39;;;;;;;;;;;;;;;16.23;50.48;100415.97;4964717;28;1975;-42
2023/01/19 07:48:04;;;;;;;;;;;;;;;16.15;49.24;100424.78;4991921;28;1045;-45
2023/01/19 07:50:30;;;;;;;;;;;;;;;17.33;50.91;100412.31;4976682;28;1069;-50
2023/01/19 07:52:55;;;;;;;;;;;;;;;16.54;51.26;100426.00;4970523;28;1137;-48
2023/01/19 07:55:21;;;;;;;;;;;;;;;17.36;51.81;100441.16;4961188;29;1381;-47
2023/01/19 07:57:48;;;;;;;;;;;;;;;17.42;52.85;100435.34;4965867;28;1182;-44
2023/01/19 08:00:14;;;;;;;;;;;;;;;16.82;52.10;100453.88;4961408;29;1373;-44
2023/01/19 08:02:40;;;;;;;;;;;;;;;16.56;50.74;100441.09;4960945;29;1135;-47
2023/01/19 08:05:05;;;;;;;;;;;;;;;16.40;50.00;100442.25;4960301;28;1910;-49
2023/01/19 08:07:31;;;;;;;;;;;;;;;16.27;49.46;100434.59;4957842;28;1332;-49
2023/01/19 08:09:57;;;;;;;;;;;;;;;17.21;51.30;100450.38;4991556;28;1109;-53
2023/01/19 08:12:22;;;;;;;;;;;;;;;16.61;50.91;100442.97;4967101;28;1086;-52
2023/01/19 08:14:48;;;;;;;;;;;;;;;16.33;50.20;100433.50;4980253;28;1065;-49
2023/01/19 08:17:13;;;;;;;;;;;;;;;16.13;49.56;100445.34;4979008;28;1112;-50
2023/01/19 08:19:39;;;;;;;;;;;;;;;16.66;50.77;100451.22;4961279;29;1234;-47
2023/01/19 08:22:05;;;;;;;;;;;;;;;16.67;51.62;100469.28;4963236;28;1113;-49
2023/01/19 08:24:31;;;;;;;;;;;;;;;18.17;51.62;100466.28;4964397;28;1914;-49
2023/01/19 08:27:00;;;;;;;;;;;;;;;17.00;52.72;100457.88;4973667;28;1101;-52
2023/01/19 08:29:25;;;;;;;;;;;;;;;16.59;51.32;100461.66;4972670;28;1109;-50
2023/01/19 08:31:54;;;;;;;;;;;;;;;16.51;50.28;100467.72;4970521;28;1061;-50
2023/01/19 08:34:19;;;;;;;;;;;;;;;16.32;49.83;100453.81;4975107;28;1255;-51
2023/01/19 08:36:44;;;;;;;;;;;;;;;16.92;51.41;100459.31;4980146;28;1073;-48
2023/01/19 08:39:11;;;;;;;;;;;;;;;16.41;50.80;100461.19;4965603;28;1009;-53
2023/01/19 08:41:36;;;;;;;;;;;;;;;16.30;49.62;100465.06;4973573;28;1069;-50
2023/01/19 08:44:02;;;;;;;;;;;;;;;17.01;50.54;100465.88;4972090;28;1101;-55
2023/01/19 08:46:27;;;;;;;;;;;;;;;16.46;50.78;100478.72;4964118;28;1963;-49
2023/01/19 08:48:53;;;;;;;;;;;;;;;16.29;49.83;100471.63;4969449;28;1189;-47
2023/01/19 08:51:19;;;;;;;;;;;;;;;16.48;49.63;100471.03;4979971;28;1053;-49
2023/01/19 08:53:44;;;;;;;;;;;;;;;16.56;50.30;100465.81;4980195;28;1089;-49
2023/01/19 08:56:11;;;;;;;;;;;;;;;16.33;50.19;100471.91;4963089;28;1271;-55
2023/01/19 08:58:37;;;;;;;;;;;;;;;17.61;50.83;100478.63;4959852;28;1237;-47
2023/01/19 09:01:03;;;;;;;;;;;;;;;16.64;51.66;100469.06;4978445;28;1110;-53
2023/01/19 09:03:29;;;;;;;;;;;;;;;16.50;50.38;100466.09;4968154;28;1141;-50
2023/01/19 09:05:54;;;;;;;;;;;;;;;16.21;49.52;100440.09;4978146;28;1906;-48
2023/01/19 09:08:19;;;;;;;;;;;;;;;16.81;50.14;100449.47;4961422;28;1115;-48
2023/01/19 09:10:46;;;;;;;;;;;;;;;16.53;50.25;100441.63;4977919;28;1165;-45
2023/01/19 09:13:12;;;;;;;;;;;;;;;16.32;49.40;100440.91;4975264;28;1116;-45
2023/01/19 09:15:37;;;;;;;;;;;;;;;16.24;48.77;100434.09;4950193;28;1035;-47
2023/01/19 09:18:03;;;;;;;;;;;;;;;16.12;47.83;100424.50;4966434;28;1247;-54
2023/01/19 09:20:30;;;;;;;;;;;;;;;15.95;47.67;100409.22;4979322;28;1085;-48
2023/01/19 09:22:55;;;;;;;;;;;;;;;16.51;49.25;100413.66;4974183;28;1026;-51
2023/01/19 09:25:21;;;;;;;;;;;;;;;16.50;49.85;100412.00;4958734;29;1902;-46
2023/01/19 09:27:46;;;;;;;;;;;;;;;16.11;49.54;100406.41;4971888;28;1066;-47
2023/01/19 09:30:12;;;;;;;;;;;;;;;16.06;48.44;100399.00;4972938;28;1034;-47
2023/01/19 09:32:37;;;;;;;;;;;;;;;16.02;47.86;100393.28;4966564;28;1133;-46
2023/01/19 09:35:03;;;;;;;;;;;;;;;17.08;48.96;100391.38;4966242;28;1118;-49
2023/01/19 09:37:28;;;;;;;;;;;;;;;16.37;49.66;100388.75;4979451;28;1042;-47
2023/01/19 09:39:54;;;;;;;;;;;;;;;16.07;49.00;100387.78;4979160;28;1049;-49
2023/01/19 09:42:24;;;;;;;;;;;;;;;15.95;48.16;100379.03;4978917;28;1042;-49
2023/01/19 09:44:52;;;;;;;;;;;;;;;16.65;49.19;100380.94;4978740;28;1898;-46
2023/01/19 09:47:19;;;;;;;;;;;;;;;16.30;49.87;100370.94;4966953;28;1006;-45
2023/01/19 09:50:03;;;;;;;;;;;;;;;16.02;49.24;100354.88;4980254;28;1097;-45
2023/01/19 09:52:29;;;;;;;;;;;;;;;16.79;49.42;100361.06;4975608;28;1022;-46
2023/01/19 09:54:55;;;;;;;;;;;;;;;16.43;50.08;100354.69;4942529;29;1249;-48
2023/01/19 09:57:21;;;;;;;;;;;;;;;16.06;49.46;100353.22;4970730;28;1066;-47
2023/01/19 09:59:50;;;;;;;;;;;;;;;15.98;48.63;100342.03;4940146;29;1300;-48
2023/01/19 10:02:26;;;;;;;;;;;;;;;16.27;49.26;100341.31;4974312;28;1050;-47
2023/01/19 10:05:07;;;;;;;;;;;;;;;16.40;50.06;100327.81;4974434;28;1906;-45
2023/01/19 10:07:32;;;;;;;;;;;;;;;16.07;49.17;100337.56;4986652;28;1125;-45
2023/01/19 10:10:12;;;;;;;;;;;;;;;17.37;49.79;100343.88;4973087;28;1062;-49
2023/01/19 10:12:41;;;;;;;;;;;;;;;16.43;50.67;100332.72;4966790;28;1121;-48
2023/01/19 10:15:10;;;;;;;;;;;;;;;16.10;49.78;100337.00;4941584;29;1392;-47
2023/01/19 10:17:35;;;;;;;;;;;;;;;16.07;49.74;100332.94;4959032;28;1193;-46
2023/01/19 10:20:01;;;;;;;;;;;;;;;16.95;50.62;100326.91;4957406;28;2248;-55
2023/01/19 10:22:26;;;;;;;;;;;;;;;16.32;50.51;100327.59;4960802;28;2308;-58
2023/01/19 10:24:55;;;;;;;;;;;;;;;16.18;49.41;100341.09;4960230;28;1947;-55
2023/01/19 10:27:30;;;;;;;;;;;;;;;17.26;50.45;100334.91;4973521;28;1835;-55
2023/01/19 10:29:55;;;;;;;;;;;;;;;16.48;50.45;100339.28;4958246;28;1812;-55
2023/01/19 10:32:22;;;;;;;;;;;;;;;17.19;50.82;100332.47;4958491;28;2090;-54
2023/01/19 10:34:48;;;;;;;;;;;;;;;17.22;51.40;100331.09;4977190;28;1843;-55
2023/01/19 10:37:17;;;;;;;;;;;;;;;16.61;50.78;100333.19;4964816;28;1192;-53
2023/01/19 10:39:46;;;;;;;;;;;;;;;16.43;50.04;100331.91;4958578;28;1031;-54
2023/01/19 10:42:12;;;;;;;;;;;;;;;16.21;49.07;100318.59;4958653;28;1126;-55
2023/01/19 10:44:37;;;;;;;;;;;;;;;16.20;48.37;100327.91;4953161;29;1977;-57
2023/01/19 10:47:03;;;;;;;;;;;;;;;15.97;48.35;100321.16;4963033;28;1105;-57
2023/01/19 10:49:30;;;;;;;;;;;;;;;15.96;47.63;100323.06;4940635;29;1046;-56
2023/01/19 10:51:58;;;;;;;;;;;;;;;16.64;49.07;100337.28;4958257;28;1010;-55
2023/01/19 10:54:24;;;;;;;;;;;;;;;16.50;50.03;100337.91;4958030;28;1057;-54
2023/01/19 10:56:50;;;;;;;;;;;;;;;16.12;49.33;100325.75;4957635;28;1496;-54
2023/01/19 10:59:34;;;;;;;;;;;;;;;16.08;48.57;100331.81;4966137;28;1151;-52
2023/01/19 11:02:09;;;;;;;;;;;;;;;16.96;49.73;100328.56;4948199;28;1095;-52
2023/01/19 11:04:34;;;;;;;;;;;;;;;16.34;50.17;100339.94;4939038;28;1827;-50
2023/01/19 11:07:12;;;;;;;;;;;;;;;16.16;49.49;100343.28;4969929;28;1919;-57
2023/01/19 11:09:38;;;;;;;;;;;;;;;16.04;48.79;100344.44;4970808;28;1109;-52
2023/01/19 11:12:03;;;;;;;;;;;;;;;15.89;48.21;100339.84;4981591;28;854;-55
2023/01/19 11:14:29;;;;;;;;;;;;;;;15.91;47.56;100339.56;4974919;28;1104;-54
2023/01/19 11:16:55;;;;;;;;;;;;;;;15.73;47.59;100340.97;4982240;28;1045;-52
2023/01/19 11:19:24;;;;;;;;;;;;;;;15.74;47.66;100332.44;4964185;28;1288;-54
2023/01/19 11:21:50;;;;;;;;;;;;;;;15.71;47.21;100338.50;4977567;28;1053;-54
2023/01/19 11:24:15;;;;;;;;;;;;;;;16.70;48.50;100336.13;4964559;28;1105;-52
2023/01/19 11:26:40;;;;;;;;;;;;;;;16.03;49.57;100331.00;4991403;28;1910;-54
2023/01/19 11:29:13;;;;;;;;;;;;;;;15.83;48.70;100329.19;4976632;28;1006;-56
2023/01/19 11:31:38;;;;;;;;;;;;;;;16.62;49.88;100334.00;4939216;29;1245;-53
2023/01/19 11:34:04;;;;;;;;;;;;;;;16.04;49.71;100330.72;4954618;28;1099;-56
2023/01/19 11:36:30;;;;;;;;;;;;;;;15.94;48.86;100325.28;4970691;28;1003;-57
2023/01/19 11:38:57;;;;;;;;;;;;;;;15.72;48.45;100312.75;4967237;28;1077;-55
2023/01/19 11:41:22;;;;;;;;;;;;;;;16.55;49.79;100318.66;4967311;28;1058;-58
2023/01/19 11:43:52;;;;;;;;;;;;;;;16.07;49.69;100312.88;4964348;28;1098;-55
2023/01/19 11:46:17;;;;;;;;;;;;;;;16.29;49.98;100315.25;4982286;28;1971;-54
2023/01/19 11:48:46;;;;;;;;;;;;;;;16.37;50.22;100317.41;4973852;28;1085;-54
2023/01/19 11:51:15;;;;;;;;;;;;;;;16.08;49.77;100309.06;4977384;28;1105;-54
2023/01/19 11:53:40;;;;;;;;;;;;;;;15.91;49.10;100287.47;4959282;28;1082;-53
2023/01/19 11:56:07;;;;;;;;;;;;;;;17.23;49.70;100302.50;4923659;29;1229;-55
2023/01/19 11:58:35;;;;;;;;;;;;;;;16.31;50.81;100295.75;4941008;29;1324;-50
2023/01/19 12:01:02;;;;;;;;;;;;;;;16.04;49.97;100292.31;4957344;28;976;-55
2023/01/19 12:03:31;;;;;;;;;;;;;;;16.01;49.12;100289.34;4950176;28;1145;-53
2023/01/19 12:05:57;;;;;;;;;;;;;;;15.94;48.40;100286.09;4976988;28;1988;-54
2023/01/19 12:08:52;;;;;;;;;;;;;;;15.82;48.19;100284.50;4992112;28;1112;-51
2023/01/19 12:11:19;;;;;;;;;;;;;;;15.82;48.16;100275.44;4960499;28;1245;-53
2023/01/19 12:13:45;;;;;;;;;;;;;;;16.21;49.45;100271.94;4990839;28;1065;-52
2023/01/19 12:16:12;;;;;;;;;;;;;;;15.89;49.14;100281.44;4957643;29;1242;-51
2023/01/19 12:18:42;;;;;;;;;;;;;;;17.02;49.14;100283.47;4957086;29;1248;-54
2023/01/19 12:21:08;;;;;;;;;;;;;;;16.22;49.99;100277.16;4968947;28;1129;-55
2023/01/19 12:23:40;;;;;;;;;;;;;;;15.90;49.45;100272.13;4958189;28;1379;-47
2023/01/19 12:26:11;;;;;;;;;;;;;;;15.89;48.89;100274.03;4941757;28;1985;-50
2023/01/19 12:28:38;;;;;;;;;;;;;;;15.83;48.09;100275.16;4953421;28;1214;-46
2023/01/19 12:31:03;;;;;;;;;;;;;;;15.87;47.60;100275.41;4944167;29;1159;-44
2023/01/19 12:33:33;;;;;;;;;;;;;;;16.35;49.59;100286.66;4956955;29;1313;-45
2023/01/19 12:35:59;;;;;;;;;;;;;;;15.98;49.50;100287.19;4969222;28;1110;-48
2023/01/19 12:38:43;;;;;;;;;;;;;;;15.85;48.75;100278.44;4964302;28;1157;-50
2023/01/19 12:41:14;;;;;;;;;;;;;;;15.74;48.07;100282.31;4974594;28;1089;-48
2023/01/19 12:43:40;;;;;;;;;;;;;;;15.68;47.70;100284.25;4960480;28;1138;-48
2023/01/19 12:46:24;;;;;;;;;;;;;;;16.32;48.78;100295.47;4973644;28;1973;-51
2023/01/19 12:48:49;;;;;;;;;;;;;;;16.13;49.49;100295.31;4962987;28;960;-48
2023/01/19 12:51:33;;;;;;;;;;;;;;;15.91;48.97;100310.22;4960126;29;1300;-48
2023/01/19 12:53:58;;;;;;;;;;;;;;;16.80;49.34;100302.28;4959601;29;1166;-48